Time;durP1;ratioP1;P1;durP2;ratioP2;P2;SDS_P1;SDS_P2;PMS_P1;PMS_P2;Temp;Humidity;BMP_temperature;BMP_pressure;BME280_temperature;BME280_humidity;BME280_pressure;Samples;Min_cycle;Max_cycle;Signal;HPM_P1;HPM_P2
2021/06/01 00:00:48;;;;;;;6.75;3.10;;;;;;;11.68;66.36;101262.91;3531944;40;20316;-57
2021/06/01 00:03:16;;;;;;;3.97;2.85;;;;;;;11.56;66.21;101263.44;3531855;40;20079;-55
2021/06/01 00:05:43;;;;;;;5.85;3.50;;;;;;;11.53;66.23;101260.75;3531737;40;20084;-56
2021/06/01 00:08:10;;;;;;;5.18;3.67;;;;;;;12.01;66.59;101249.38;3531641;40;20057;-56
2021/06/01 00:10:37;;;;;;;3.65;3.35;;;;;;;11.76;67.40;101250.34;3531879;40;20047;-56
2021/06/01 00:13:03;;;;;;;4.65;3.55;;;;;;;11.56;68.53;101245.47;3531807;40;20047;-56
2021/06/01 00:15:30;;;;;;;4.05;3.33;;;;;;;11.39;69.29;101255.19;3532442;40;20347;-56
2021/06/01 00:17:57;;;;;;;5.03;3.42;;;;;;;11.40;67.84;101256.06;3532335;40;20051;-55
2021/06/01 00:20:24;;;;;;;4.78;3.50;;;;;;;11.57;69.87;101249.78;3532084;40;20095;-56
2021/06/01 00:22:51;;;;;;;4.07;3.70;;;;;;;11.50;70.34;101249.53;3532181;40;20412;-55
2021/06/01 00:25:18;;;;;;;5.53;3.88;;;;;;;11.40;70.15;101254.38;3531729;40;20115;-57
2021/06/01 00:27:45;;;;;;;4.63;4.15;;;;;;;11.58;70.87;101256.63;3531441;40;20085;-55
2021/06/01 00:30:13;;;;;;;4.88;4.03;;;;;;;11.49;70.31;101251.22;3531536;40;20500;-56
2021/06/01 00:32:40;;;;;;;6.65;3.65;;;;;;;11.28;71.10;101245.41;3531721;40;20054;-55
2021/06/01 00:35:08;;;;;;;3.92;3.60;;;;;;;10.82;72.72;101256.75;3531821;40;20354;-57
2021/06/01 00:37:35;;;;;;;4.90;3.65;;;;;;;10.68;74.15;101254.59;3531568;40;20487;-56
2021/06/01 00:40:02;;;;;;;4.30;3.03;;;;;;;10.64;72.85;101249.31;3531595;40;20061;-56
2021/06/01 00:42:29;;;;;;;7.15;3.95;;;;;;;10.57;73.30;101253.34;3531434;40;20066;-55
2021/06/01 00:44:56;;;;;;;3.75;3.15;;;;;;;10.51;74.06;101253.13;3527848;40;20061;-57
2021/06/01 00:47:23;;;;;;;5.78;4.38;;;;;;;10.69;72.73;101247.78;3531906;40;20051;-56
2021/06/01 00:49:50;;;;;;;4.45;3.53;;;;;;;10.97;71.55;101249.56;3531819;40;20082;-57
2021/06/01 00:52:18;;;;;;;6.53;3.90;;;;;;;10.92;70.91;101241.72;3531022;40;20499;-57
2021/06/01 00:54:45;;;;;;;5.30;3.35;;;;;;;10.75;71.75;101247.97;3522501;40;20058;-53
2021/06/01 00:57:12;;;;;;;5.50;3.50;;;;;;;10.56;72.76;101243.91;3531445;40;20134;-55
2021/06/01 00:59:39;;;;;;;4.70;3.70;;;;;;;10.45;72.30;101243.56;3531582;40;20059;-53
2021/06/01 01:02:06;;;;;;;3.22;2.80;;;;;;;10.44;70.33;101244.38;3531478;40;20083;-56
2021/06/01 01:04:35;;;;;;;5.25;3.50;;;;;;;10.50;71.74;101241.16;3531415;40;20140;-54
2021/06/01 01:07:16;;;;;;;4.03;3.40;;;;;;;10.49;70.20;101246.19;3531569;40;20065;-55
2021/06/01 01:09:45;;;;;;;4.53;2.97;;;;;;;10.62;68.34;101248.38;3531585;40;20091;-55
2021/06/01 01:12:17;;;;;;;4.40;2.83;;;;;;;10.66;67.66;101252.78;3531580;40;20082;-58
2021/06/01 01:14:49;;;;;;;3.50;3.10;;;;;;;10.78;68.15;101242.97;3531342;40;20063;-54
2021/06/01 01:17:21;;;;;;;3.00;2.72;;;;;;;10.94;67.94;101247.75;3531273;40;20089;-54
2021/06/01 01:20:07;;;;;;;3.63;3.30;;;;;;;11.07;67.73;101243.91;3531785;40;20061;-54
2021/06/01 01:22:44;;;;;;;4.10;3.33;;;;;;;10.88;68.57;101234.75;3531241;40;20063;-57
2021/06/01 01:25:22;;;;;;;3.70;2.83;;;;;;;11.19;68.20;101243.47;3531316;40;20055;-56
2021/06/01 01:27:57;;;;;;;4.43;3.13;;;;;;;11.20;68.33;101245.19;3531211;40;20055;-55
2021/06/01 01:30:28;;;;;;;4.32;3.10;;;;;;;10.84;69.80;101242.28;3530589;40;20047;-58
2021/06/01 01:32:59;;;;;;;3.67;3.10;;;;;;;10.50;73.31;101250.53;3527284;40;20528;-54
2021/06/01 01:35:28;;;;;;;3.38;3.08;;;;;;;10.36;73.38;101242.38;3531395;40;20427;-56
2021/06/01 01:38:00;;;;;;;4.47;3.00;;;;;;;10.39;73.45;101245.00;3527562;40;20082;-55
2021/06/01 01:40:33;;;;;;;3.78;3.20;;;;;;;10.30;74.59;101243.00;3531282;40;20074;-58
2021/06/01 01:43:16;;;;;;;4.38;3.83;;;;;;;10.29;74.52;101245.50;3527592;40;20089;-55
2021/06/01 01:45:50;;;;;;;;;;;;;;;10.26;75.53;101237.72;3532159;40;20745;-58
2021/06/01 01:51:19;;;;;;;5.05;3.30;;;;;;;10.16;76.43;101233.91;3528013;40;20082;-59
2021/06/01 01:53:54;;;;;;;5.93;3.30;;;;;;;10.27;76.73;101230.09;3531329;40;20087;-59
2021/06/01 01:56:25;;;;;;;5.15;3.53;;;;;;;10.41;75.24;101234.03;3531221;40;20105;-53
2021/06/01 01:58:52;;;;;;;4.47;3.33;;;;;;;10.54;74.55;101229.31;3522253;40;20066;-53
2021/06/01 02:01:21;;;;;;;4.05;3.33;;;;;;;10.60;74.80;101221.84;3530903;40;20051;-57
2021/06/01 02:03:50;;;;;;;5.47;3.33;;;;;;;10.73;73.84;101218.03;3531063;40;20094;-54
2021/06/01 02:06:17;;;;;;;6.82;3.80;;;;;;;10.92;73.12;101210.13;3532212;40;20863;-58
2021/06/01 02:08:45;;;;;;;5.18;3.38;;;;;;;11.22;71.95;101211.06;3532604;40;20065;-55
2021/06/01 02:11:12;;;;;;;3.35;3.05;;;;;;;11.06;72.78;101210.56;3532391;40;20044;-56
2021/06/01 02:13:54;;;;;;;4.72;3.28;;;;;;;10.96;72.74;101205.13;3532451;40;20047;-55
2021/06/01 02:16:21;;;;;;;4.20;3.20;;;;;;;10.67;72.82;101200.72;3532920;40;20416;-53
2021/06/01 02:18:50;;;;;;;4.10;3.10;;;;;;;10.81;73.09;101202.06;3532706;40;20140;-56
2021/06/01 02:24:16;;;;;;;4.18;3.30;;;;;;;10.62;73.24;101199.72;3529293;40;20061;-52
2021/06/01 02:27:03;;;;;;;3.63;3.33;;;;;;;10.12;75.12;101198.78;3532350;40;20058;-54
2021/06/01 02:29:37;;;;;;;3.58;3.20;;;;;;;9.95;75.97;101193.97;3532634;40;20057;-56
2021/06/01 02:32:06;;;;;;;5.15;3.05;;;;;;;9.81;76.52;101199.41;3528719;40;20075;-57
2021/06/01 02:34:39;;;;;;;5.40;3.40;;;;;;;9.68;77.06;101196.38;3532069;40;20069;-55
2021/06/01 02:37:08;;;;;;;7.28;3.17;;;;;;;9.69;78.03;101200.66;3532091;40;20332;-56
2021/06/01 02:39:36;;;;;;;6.68;3.83;;;;;;;9.67;77.95;101199.75;3532241;40;20063;-57
2021/06/01 02:42:04;;;;;;;5.07;3.42;;;;;;;9.67;78.33;101199.75;3532113;40;20102;-53
2021/06/01 02:44:33;;;;;;;5.00;3.58;;;;;;;9.68;79.15;101205.72;3532285;40;20047;-55
2021/06/01 02:47:01;;;;;;;3.95;3.55;;;;;;;9.65;79.63;101203.91;3532387;40;20092;-53
2021/06/01 02:49:28;;;;;;;5.32;3.70;;;;;;;9.67;79.45;101212.53;3532496;40;20093;-53
2021/06/01 02:51:56;;;;;;;3.72;3.40;;;;;;;9.81;78.86;101200.25;3532506;40;20105;-56
2021/06/01 02:54:24;;;;;;;4.82;4.28;;;;;;;9.55;80.04;101206.09;3527997;40;20090;-55
2021/06/01 02:56:51;;;;;;;14.90;4.43;;;;;;;9.55;80.68;101206.09;3523367;40;20063;-58
2021/06/01 02:59:19;;;;;;;14.15;4.13;;;;;;;9.61;80.64;101207.22;3532141;40;20102;-51
2021/06/01 03:01:49;;;;;;;8.77;4.35;;;;;;;10.34;77.34;101203.03;3532222;40;20142;-58
2021/06/01 03:04:16;;;;;;;6.80;4.80;;;;;;;10.13;78.45;101205.69;3532204;40;20054;-54
2021/06/01 03:06:44;;;;;;;5.97;4.00;;;;;;;10.03;78.80;101194.25;3531395;40;20061;-54
2021/06/01 03:09:12;;;;;;;7.88;5.18;;;;;;;10.32;77.61;101191.88;3532288;40;20047;-55
2021/06/01 03:11:41;;;;;;;5.55;4.18;;;;;;;9.76;79.59;101188.13;3532022;40;20061;-55
2021/06/01 03:14:08;;;;;;;7.82;4.18;;;;;;;9.74;80.00;101188.06;3532320;40;20062;-55
2021/06/01 03:16:35;;;;;;;7.10;4.45;;;;;;;9.37;81.55;101185.78;3531927;40;20098;-55
2021/06/01 03:19:03;;;;;;;7.00;4.43;;;;;;;9.36;82.30;101186.63;3532102;40;20421;-56
2021/06/01 03:21:31;;;;;;;4.68;3.75;;;;;;;9.33;81.52;101181.38;3532507;40;20090;-54
2021/06/01 03:23:58;;;;;;;6.30;4.15;;;;;;;9.40;82.47;101186.78;3529243;40;20098;-55
2021/06/01 03:26:25;;;;;;;5.90;4.15;;;;;;;10.17;77.87;101189.63;3532448;40;20067;-57
2021/06/01 03:28:52;;;;;;;6.00;3.78;;;;;;;10.21;76.57;101186.31;3532104;40;20057;-54
2021/06/01 03:31:19;;;;;;;5.68;4.60;;;;;;;10.28;76.16;101183.22;3532286;40;20055;-55
2021/06/01 03:33:50;;;;;;;6.72;4.32;;;;;;;10.10;77.09;101185.09;3531917;40;20118;-57
2021/06/01 03:36:17;;;;;;;7.57;4.43;;;;;;;10.19;77.18;101185.41;3531826;40;20085;-54
2021/06/01 03:38:46;;;;;;;5.60;4.00;;;;;;;9.78;79.10;101184.78;3522995;40;20079;-51
2021/06/01 03:41:13;;;;;;;4.68;3.70;;;;;;;9.59;81.60;101200.28;3531888;40;20070;-56
2021/06/01 03:43:40;;;;;;;5.90;4.60;;;;;;;9.81;80.72;101204.50;3531989;40;20060;-55
2021/06/01 03:46:07;;;;;;;5.05;4.38;;;;;;;10.03;79.58;101199.38;3532019;40;20062;-53
2021/06/01 03:48:34;;;;;;;9.52;4.55;;;;;;;10.01;81.12;101200.97;3532085;40;20055;-58
2021/06/01 03:51:04;;;;;;;6.25;4.80;;;;;;;10.06;80.15;101204.56;3531881;40;20049;-57
2021/06/01 03:53:31;;;;;;;6.78;4.97;;;;;;;9.70;82.82;101201.53;3531716;40;20061;-57
2021/06/01 03:55:58;;;;;;;6.60;5.07;;;;;;;9.89;82.39;101203.09;3531512;40;20360;-58
2021/06/01 03:58:25;;;;;;;9.15;5.38;;;;;;;9.95;82.15;101201.63;3532068;40;20419;-55
2021/06/01 04:00:52;;;;;;;7.78;5.72;;;;;;;9.84;82.68;101196.94;3531803;40;20059;-56
2021/06/01 04:03:19;;;;;;;6.75;4.28;;;;;;;10.31;80.84;101198.69;3532941;40;20606;-53
2021/06/01 04:05:46;;;;;;;6.10;5.13;;;;;;;10.31;80.70;101197.81;3533494;40;20091;-52
2021/06/01 04:08:13;;;;;;;8.02;5.30;;;;;;;9.94;82.63;101192.22;3532696;40;20061;-55
2021/06/01 04:10:40;;;;;;;7.55;5.65;;;;;;;9.90;83.29;101194.63;3531901;40;20046;-55
2021/06/01 04:13:07;;;;;;;7.25;4.95;;;;;;;9.90;83.97;101192.94;3531677;40;20060;-54
2021/06/01 04:15:34;;;;;;;8.75;5.90;;;;;;;10.01;84.55;101188.19;3531938;40;20046;-54
2021/06/01 04:18:01;;;;;;;9.95;6.18;;;;;;;10.02;83.82;101184.81;3531920;40;20039;-54
2021/06/01 04:20:28;;;;;;;6.68;5.82;;;;;;;10.22;84.03;101194.91;3532172;40;20076;-56
2021/06/01 04:22:55;;;;;;;7.82;6.25;;;;;;;10.26;83.91;101182.31;3532068;40;20062;-52
2021/06/01 04:25:22;;;;;;;8.35;5.82;;;;;;;10.41;84.17;101192.19;3532130;40;20106;-54
2021/06/01 04:27:49;;;;;;;6.65;5.88;;;;;;;10.50;84.09;101194.19;3532010;40;20046;-58
2021/06/01 04:30:17;;;;;;;8.48;5.45;;;;;;;10.71;83.32;101192.34;3532019;40;20095;-59
2021/06/01 04:32:44;;;;;;;7.47;5.30;;;;;;;10.78;82.74;101189.16;3530610;40;20062;-56
2021/06/01 04:35:13;;;;;;;7.78;5.45;;;;;;;10.91;83.21;101187.88;3528259;40;20434;-55
2021/06/01 04:37:40;;;;;;;10.05;5.40;;;;;;;11.03;82.58;101197.63;3531128;40;20051;-57
2021/06/01 04:40:10;;;;;;;7.55;5.70;;;;;;;11.20;82.20;101194.78;3531148;40;20061;-58
2021/06/01 04:42:37;;;;;;;9.40;7.03;;;;;;;11.38;80.80;101189.38;3531326;40;20059;-56
2021/06/01 04:45:05;;;;;;;8.20;6.20;;;;;;;11.51;80.71;101193.16;3531386;40;20617;-56
2021/06/01 04:47:32;;;;;;;6.68;5.45;;;;;;;11.58;80.74;101189.09;3531373;40;20055;-54
2021/06/01 04:49:59;;;;;;;10.15;6.20;;;;;;;11.73;81.66;101186.94;3531411;40;20096;-57
2021/06/01 04:52:26;;;;;;;9.18;6.78;;;;;;;11.84;81.65;101183.06;3537137;40;20098;-53
2021/06/01 04:54:53;;;;;;;9.85;6.80;;;;;;;12.18;79.32;101189.09;3537197;40;20078;-57
2021/06/01 04:57:20;;;;;;;8.63;6.95;;;;;;;11.95;80.49;101189.34;3531616;40;20059;-53
2021/06/01 04:59:47;;;;;;;9.48;6.97;;;;;;;12.35;80.17;101187.88;3531513;40;20057;-53
2021/06/01 05:02:14;;;;;;;6.82;5.97;;;;;;;12.58;79.33;101188.47;3531572;40;20373;-55
2021/06/01 05:04:41;;;;;;;8.05;6.80;;;;;;;12.52;79.07;101193.44;3531397;40;20055;-56
2021/06/01 05:07:08;;;;;;;8.73;6.70;;;;;;;12.74;78.58;101193.13;3531438;40;20054;-55
2021/06/01 05:09:35;;;;;;;8.10;6.35;;;;;;;12.98;77.95;101195.44;3531414;40;20094;-54
2021/06/01 05:12:02;;;;;;;10.07;6.47;;;;;;;13.30;76.41;101195.34;3531874;40;20324;-55
2021/06/01 05:14:30;;;;;;;8.10;6.30;;;;;;;13.21;76.95;101188.25;3531575;40;20071;-54
2021/06/01 05:16:57;;;;;;;8.13;6.38;;;;;;;13.58;75.10;101186.53;3528522;40;20054;-52
2021/06/01 05:19:24;;;;;;;9.07;6.55;;;;;;;13.45;76.49;101190.56;3529058;40;20070;-58
2021/06/01 05:21:51;;;;;;;10.65;6.63;;;;;;;13.74;76.11;101195.47;3531461;40;20565;-55
2021/06/01 05:24:18;;;;;;;9.55;6.30;;;;;;;13.68;76.59;101196.22;3531518;40;20106;-53
2021/06/01 05:26:45;;;;;;;8.38;6.63;;;;;;;13.99;75.14;101201.97;3531366;40;20090;-58
2021/06/01 05:29:12;;;;;;;11.68;6.57;;;;;;;14.03;75.53;101198.63;3531537;40;20076;-54
2021/06/01 05:31:57;;;;;;;11.70;6.43;;;;;;;14.37;74.51;101194.97;3522486;40;20110;-57
2021/06/01 05:34:27;;;;;;;12.23;7.18;;;;;;;14.61;72.24;101186.84;3529423;40;20436;-58
2021/06/01 05:36:55;;;;;;;11.93;7.03;;;;;;;15.03;71.82;101190.97;3531127;40;20114;-57
2021/06/01 05:39:22;;;;;;;11.98;7.80;;;;;;;15.28;70.53;101192.19;3533800;40;20050;-56
2021/06/01 05:41:49;;;;;;;9.10;7.22;;;;;;;15.56;69.43;101197.75;3534829;40;20062;-52
2021/06/01 05:44:16;;;;;;;10.32;7.28;;;;;;;15.77;69.13;101196.34;3534884;40;20058;-58
2021/06/01 05:46:43;;;;;;;12.05;8.00;;;;;;;15.61;70.10;101198.66;3533177;40;20066;-56
2021/06/01 05:49:11;;;;;;;15.30;7.72;;;;;;;15.95;69.87;101200.00;3531782;40;20073;-52
2021/06/01 05:51:39;;;;;;;13.73;8.50;;;;;;;16.21;68.76;101203.72;3528509;40;20047;-54
2021/06/01 05:54:08;;;;;;;12.38;8.13;;;;;;;16.32;67.66;101206.44;3530965;40;20038;-56
2021/06/01 05:56:37;;;;;;;16.27;8.95;;;;;;;16.43;68.18;101197.06;3529182;40;20047;-53
2021/06/01 05:59:06;;;;;;;15.95;8.93;;;;;;;16.62;66.55;101202.41;3533451;40;20081;-57
2021/06/01 06:01:34;;;;;;;13.23;8.65;;;;;;;16.49;66.79;101202.28;3531331;40;20058;-53
2021/06/01 06:04:01;;;;;;;15.25;7.80;;;;;;;16.57;69.26;101202.38;3532781;40;20046;-52
2021/06/01 06:06:28;;;;;;;11.07;8.52;;;;;;;16.48;68.35;101195.38;3529838;40;20045;-59
2021/06/01 06:08:55;;;;;;;12.20;7.82;;;;;;;16.76;68.31;101198.25;3534866;40;20054;-56
2021/06/01 06:11:22;;;;;;;11.73;7.82;;;;;;;17.03;67.57;101195.88;3533637;40;20043;-58
2021/06/01 06:13:50;;;;;;;13.15;8.50;;;;;;;16.67;68.84;101185.22;3531859;40;20066;-55
2021/06/01 06:16:20;;;;;;;15.77;8.95;;;;;;;16.87;67.80;101194.06;3534256;40;20090;-55
2021/06/01 06:18:52;;;;;;;16.40;9.27;;;;;;;17.14;67.68;101189.91;3531323;40;20409;-55
2021/06/01 06:21:19;;;;;;;14.77;9.18;;;;;;;17.16;67.12;101194.25;3534246;40;20071;-58
2021/06/01 06:23:46;;;;;;;13.02;8.77;;;;;;;17.21;67.71;101200.34;3534164;40;20054;-54
2021/06/01 06:26:13;;;;;;;13.63;9.40;;;;;;;17.61;66.32;101200.56;3538276;40;20464;-54
2021/06/01 06:28:40;;;;;;;16.73;9.13;;;;;;;17.59;67.03;101204.88;3539987;40;20085;-56
2021/06/01 06:31:08;;;;;;;17.08;9.15;;;;;;;17.83;65.47;101205.88;3535724;40;20061;-56
2021/06/01 06:33:35;;;;;;;18.08;9.00;;;;;;;17.92;65.10;101203.31;3533589;40;20043;-55
2021/06/01 06:36:02;;;;;;;15.93;8.77;;;;;;;17.70;64.66;101200.63;3533891;40;20108;-54
2021/06/01 06:38:30;;;;;;;14.43;9.50;;;;;;;18.02;63.74;101205.06;3534068;40;20094;-58
2021/06/01 06:41:12;;;;;;;15.18;8.50;;;;;;;17.90;65.28;101203.31;3531417;40;20055;-59
2021/06/01 06:43:47;;;;;;;15.10;9.55;;;;;;;18.15;64.42;101199.06;3533751;40;20053;-55
2021/06/01 06:46:18;;;;;;;12.63;8.83;;;;;;;18.24;64.84;101198.22;3533825;40;20054;-55
2021/06/01 06:48:45;;;;;;;16.95;9.52;;;;;;;18.66;62.40;101191.38;3533961;40;20054;-57
2021/06/01 06:51:13;;;;;;;18.60;9.70;;;;;;;18.55;62.70;101186.19;3532353;40;20054;-54
2021/06/01 06:53:53;;;;;;;16.58;9.63;;;;;;;18.78;62.50;101184.50;3532563;40;20062;-55
2021/06/01 06:56:23;;;;;;;17.63;10.00;;;;;;;18.79;61.94;101190.53;3532513;40;20057;-58
2021/06/01 06:58:50;;;;;;;16.00;9.23;;;;;;;18.93;62.71;101191.41;3532512;40;20468;-57
2021/06/01 07:01:18;;;;;;;13.65;10.00;;;;;;;19.08;61.44;101182.72;3532592;40;20043;-55
2021/06/01 07:03:45;;;;;;;16.77;10.52;;;;;;;19.12;60.03;101181.84;3531924;40;20827;-54
2021/06/01 07:06:13;;;;;;;16.55;9.77;;;;;;;19.23;60.04;101176.66;3530578;40;20837;-57
2021/06/01 07:08:41;;;;;;;18.77;10.20;;;;;;;19.57;58.31;101174.81;3532414;40;20523;-53
2021/06/01 07:11:09;;;;;;;17.17;9.50;;;;;;;19.57;58.62;101172.22;3532297;40;20054;-56
2021/06/01 07:13:49;;;;;;;15.18;9.48;;;;;;;19.92;58.14;101171.22;3532111;40;20055;-55
2021/06/01 07:16:16;;;;;;;17.48;8.68;;;;;;;19.69;58.31;101168.72;3532290;40;20085;-56
2021/06/01 07:18:44;;;;;;;15.30;9.25;;;;;;;19.72;57.14;101167.00;3531071;40;20110;-55
2021/06/01 07:21:12;;;;;;;15.95;9.85;;;;;;;20.08;57.71;101173.75;3530631;40;20053;-53
2021/06/01 07:23:40;;;;;;;13.60;8.60;;;;;;;20.19;57.46;101162.41;3520651;40;20059;-54
2021/06/01 07:26:10;;;;;;;16.05;8.40;;;;;;;20.54;55.90;101164.81;3530063;40;20097;-57
2021/06/01 07:28:38;;;;;;;16.50;8.63;;;;;;;20.84;54.60;101161.97;3529898;40;20051;-55
2021/06/01 07:31:13;;;;;;;12.93;8.13;;;;;;;20.99;55.09;101162.69;3530632;40;20069;-58
2021/06/01 07:33:44;;;;;;;14.18;9.70;;;;;;;20.99;52.91;101160.94;3530017;40;20838;-56
2021/06/01 07:36:13;;;;;;;18.08;8.63;;;;;;;21.07;53.37;101161.69;3531646;40;20054;-53
2021/06/01 07:38:40;;;;;;;16.52;9.20;;;;;;;21.16;53.08;101155.53;3532339;40;20055;-56
2021/06/01 07:41:13;;;;;;;12.65;8.00;;;;;;;21.27;54.00;101150.25;3532142;40;20162;-54
2021/06/01 07:43:40;;;;;;;13.73;7.53;;;;;;;21.75;51.94;101163.59;3529206;40;20123;-55
2021/06/01 07:46:11;;;;;;;12.75;7.93;;;;;;;21.80;51.20;101157.41;3525942;40;20051;-55
2021/06/01 07:48:39;;;;;;;12.82;7.85;;;;;;;21.46;52.00;101156.13;3525937;40;20043;-53
2021/06/01 07:51:10;;;;;;;18.45;8.88;;;;;;;21.79;52.38;101149.63;3527648;40;20075;-55
2021/06/01 07:53:39;;;;;;;10.93;7.93;;;;;;;21.94;51.55;101154.63;3530656;40;20461;-58
2021/06/01 07:56:08;;;;;;;14.55;7.93;;;;;;;21.84;48.06;101151.28;3529633;40;20098;-54
2021/06/01 07:58:35;;;;;;;13.40;7.10;;;;;;;22.09;49.61;101156.16;3530763;40;20066;-55
2021/06/01 08:01:03;;;;;;;14.05;7.50;;;;;;;22.60;48.14;101149.31;3529476;40;20439;-56
2021/06/01 08:03:30;;;;;;;14.38;7.10;;;;;;;22.93;45.41;101148.78;3530431;40;20070;-52
2021/06/01 08:05:57;;;;;;;10.98;7.00;;;;;;;22.63;46.88;101146.63;3527458;40;20159;-57
2021/06/01 08:08:33;;;;;;;8.73;6.15;;;;;;;22.35;50.21;101145.38;3528159;40;20091;-56
2021/06/01 08:11:00;;;;;;;7.78;6.47;;;;;;;22.79;48.90;101136.81;3528154;40;20043;-56
2021/06/01 08:13:27;;;;;;;11.40;6.22;;;;;;;23.51;45.87;101140.66;3528411;40;20305;-55
2021/06/01 08:15:56;;;;;;;7.78;5.70;;;;;;;23.28;43.12;101133.28;3530751;40;20095;-52
2021/06/01 08:18:32;;;;;;;9.73;5.88;;;;;;;23.33;43.69;101138.41;3530482;40;20058;-54
2021/06/01 08:21:14;;;;;;;7.35;5.88;;;;;;;23.43;44.27;101133.88;3527933;40;20055;-53
2021/06/01 08:23:41;;;;;;;8.85;4.70;;;;;;;23.35;43.80;101134.91;3528774;40;20043;-53
2021/06/01 08:26:08;;;;;;;12.15;5.90;;;;;;;23.45;41.54;101129.50;3531137;40;20039;-54
2021/06/01 08:28:35;;;;;;;14.27;5.50;;;;;;;23.30;42.66;101138.50;3531609;40;20059;-56
2021/06/01 08:31:03;;;;;;;14.80;5.95;;;;;;;22.81;43.29;101121.09;3522589;40;20620;-54
2021/06/01 08:33:31;;;;;;;15.27;6.07;;;;;;;23.16;42.80;101116.97;3531302;40;20065;-55
2021/06/01 08:35:58;;;;;;;11.45;5.22;;;;;;;23.20;43.18;101126.47;3529097;40;20051;-53
2021/06/01 08:38:25;;;;;;;9.68;5.32;;;;;;;23.29;43.89;101115.84;3526560;40;20050;-55
2021/06/01 08:40:52;;;;;;;13.35;5.90;;;;;;;23.69;44.37;101121.16;3530827;40;20052;-57
2021/06/01 08:43:26;;;;;;;22.02;7.65;;;;;;;23.52;45.06;101118.84;3521730;40;20065;-56
2021/06/01 08:45:56;;;;;;;12.77;6.00;;;;;;;23.55;45.26;101117.94;3531495;40;20123;-56
2021/06/01 08:48:24;;;;;;;7.40;5.22;;;;;;;23.65;44.69;101118.63;3529095;40;20507;-57
2021/06/01 08:50:53;;;;;;;7.47;4.75;;;;;;;23.93;44.01;101124.09;3529528;40;20109;-57
2021/06/01 08:53:20;;;;;;;8.23;5.32;;;;;;;24.01;42.16;101107.34;3528452;40;20063;-53
2021/06/01 08:55:48;;;;;;;8.85;5.00;;;;;;;23.91;43.44;101103.22;3529887;40;20051;-59
2021/06/01 08:58:21;;;;;;;6.95;5.13;;;;;;;24.34;44.82;101110.03;3531794;40;20087;-54
2021/06/01 09:00:49;;;;;;;7.57;4.43;;;;;;;24.18;41.80;101101.72;3531555;40;20062;-52
2021/06/01 09:03:21;;;;;;;7.85;5.53;;;;;;;24.54;40.16;101104.34;3531278;40;20082;-56
2021/06/01 09:06:28;;;;;;;8.95;4.40;;;;;;;24.66;40.96;101096.16;3529415;40;20055;-52
2021/06/01 09:22:49;;;;;;;6.60;4.47;;;;;;;25.86;37.16;101093.66;3530349;40;20054;-56
2021/06/01 09:25:38;;;;;;;8.57;4.43;;;;;;;26.08;34.54;101091.22;3529723;40;20055;-53
2021/06/01 09:28:12;;;;;;;5.90;4.50;;;;;;;26.07;34.85;101087.75;3519960;40;20054;-55
2021/06/01 09:30:45;;;;;;;5.90;4.85;;;;;;;26.26;35.66;101080.13;3531264;40;20058;-56
2021/06/01 09:33:16;;;;;;;6.68;4.47;;;;;;;26.27;34.01;101073.09;3531415;40;20058;-55
2021/06/01 09:35:54;;;;;;;8.63;4.65;;;;;;;27.22;33.11;101075.03;3531404;40;20058;-56
2021/06/01 09:38:25;;;;;;;7.07;4.50;;;;;;;26.71;34.83;101065.47;3531333;40;20093;-57
2021/06/01 09:41:09;;;;;;;8.05;4.47;;;;;;;27.31;33.37;101070.28;3531115;40;20435;-56
2021/06/01 09:43:55;;;;;;;6.20;4.25;;;;;;;27.05;32.64;101065.13;3531115;40;20050;-52
2021/06/01 09:46:28;;;;;;;10.40;3.90;;;;;;;27.57;34.63;101068.44;3531194;40;20062;-53
2021/06/01 09:49:17;;;;;;;7.55;4.28;;;;;;;27.90;33.42;101061.84;3531217;40;20097;-53
2021/06/01 09:51:54;;;;;;;5.28;4.43;;;;;;;27.86;31.54;101056.78;3531170;40;20051;-53
2021/06/01 09:54:34;;;;;;;6.25;4.63;;;;;;;28.09;31.44;101048.78;3522687;40;20081;-55
2021/06/01 09:57:16;;;;;;;7.82;4.68;;;;;;;28.21;32.91;101054.47;3526693;40;20050;-54
2021/06/01 10:00:09;;;;;;;4.13;3.45;;;;;;;27.63;29.99;101053.25;3530609;40;20415;-57
2021/06/01 10:02:36;;;;;;;4.25;3.22;;;;;;;28.73;27.76;101050.47;3530254;40;20055;-53
2021/06/01 10:05:14;;;;;;;5.05;2.97;;;;;;;28.50;27.48;101055.91;3530494;40;20062;-53
2021/06/01 10:07:42;;;;;;;6.30;2.67;;;;;;;28.81;26.68;101051.00;3530351;40;20075;-56
2021/06/01 10:10:21;;;;;;;4.45;4.05;;;;;;;28.93;25.63;101044.31;3530153;40;20144;-54
2021/06/01 10:12:56;;;;;;;6.30;3.67;;;;;;;28.54;28.39;101046.94;3531350;40;20059;-54
2021/06/01 10:15:26;;;;;;;5.87;4.17;;;;;;;29.31;27.74;101041.75;3530935;40;20063;-55
2021/06/01 10:18:06;;;;;;;5.38;3.95;;;;;;;31.90;24.51;101042.41;3526937;40;20144;-50
2021/06/01 10:20:36;;;;;;;4.03;3.63;;;;;;;32.74;23.24;101040.03;3530786;40;20427;-56
2021/06/01 10:23:06;;;;;;;7.25;3.97;;;;;;;32.62;21.74;101054.03;3530836;40;20055;-56
2021/06/01 10:25:34;;;;;;;5.72;3.72;;;;;;;33.43;21.13;101046.34;3531844;40;20073;-53
2021/06/01 10:28:05;;;;;;;7.65;3.75;;;;;;;34.33;20.68;101050.97;3532280;40;20162;-53
2021/06/01 10:30:35;;;;;;;5.25;4.28;;;;;;;32.47;22.70;101042.56;3532736;40;20144;-53
2021/06/01 10:33:06;;;;;;;8.73;4.78;;;;;;;34.51;21.18;101038.25;3532613;40;20091;-52
2021/06/01 10:35:38;;;;;;;7.35;4.13;;;;;;;33.56;22.48;101036.63;3532405;40;20306;-50
2021/06/01 10:42:31;;;;;;;5.95;4.53;;;;;;;32.85;25.24;101026.09;3528354;40;20058;-57
2021/06/01 10:50:28;;;;;;;5.60;4.10;;;;;;;30.76;25.12;101015.19;3532556;40;20063;-55
2021/06/01 10:53:19;;;;;;;8.23;4.43;;;;;;;30.75;26.39;101016.97;3533354;40;20564;-52
2021/06/01 10:55:57;;;;;;;8.65;4.25;;;;;;;30.40;25.35;101008.22;3532373;40;20413;-55
2021/06/01 10:58:50;;;;;;;8.45;4.03;;;;;;;30.14;24.45;101005.16;3533719;40;20424;-54
2021/06/01 11:04:05;;;;;;;;;;;;;;;29.83;25.55;100987.31;3529893;40;20132;-54
2021/06/01 11:06:48;;;;;;;5.53;3.75;;;;;;;29.85;26.49;100993.34;3531918;40;19934;-50
2021/06/01 11:09:45;;;;;;;6.63;3.90;;;;;;;30.76;24.99;100994.88;3531951;40;20058;-52
2021/06/01 11:12:20;;;;;;;5.55;3.40;;;;;;;31.11;24.96;101000.91;3530846;40;20051;-54
2021/06/01 11:14:51;;;;;;;5.03;3.67;;;;;;;30.68;25.21;100981.16;3531537;40;20494;-56
2021/06/01 11:17:36;;;;;;;5.07;3.33;;;;;;;31.36;23.49;100994.25;3531419;40;20061;-53
2021/06/01 11:20:18;;;;;;;3.83;3.15;;;;;;;31.99;22.06;100988.88;3527341;40;20340;-53
2021/06/01 11:33:36;;;;;;;3.78;2.97;;;;;;;32.98;19.22;100989.91;3531334;40;20062;-53
2021/06/01 11:36:08;;;;;;;4.13;2.90;;;;;;;33.24;20.13;100982.94;3531822;40;20132;-54
2021/06/01 11:39:01;;;;;;;4.95;3.28;;;;;;;32.15;20.27;100994.09;3532191;40;20054;-54
2021/06/01 11:44:16;;;;;;;3.15;2.95;;;;;;;30.77;21.70;100977.22;3529938;40;20684;-54
2021/06/01 11:51:56;;;;;;;4.22;3.83;;;;;;;29.87;23.93;100972.19;3529141;40;20247;-54
2021/06/01 11:54:24;;;;;;;5.78;3.70;;;;;;;29.46;22.61;100969.75;3531865;40;20073;-56
2021/06/01 11:57:13;;;;;;;4.47;3.55;;;;;;;29.03;24.09;100965.69;3531843;40;20143;-57
2021/06/01 12:13:54;;;;;;;4.20;3.80;;;;;;;32.13;21.54;100967.69;3527565;40;20062;-55
2021/06/01 12:19:09;;;;;;;4.00;3.10;;;;;;;33.28;19.83;100962.31;3527923;40;20049;-53
2021/06/01 12:21:40;;;;;;;3.97;3.40;;;;;;;32.84;21.98;100969.53;3527277;40;20047;-56
2021/06/01 12:24:21;;;;;;;3.15;2.58;;;;;;;32.03;20.50;100965.66;3528261;40;20055;-57
2021/06/01 12:27:24;;;;;;;5.75;3.28;;;;;;;32.37;20.11;100957.44;3531424;40;20353;-54
2021/06/01 12:33:23;;;;;;;3.85;3.10;;;;;;;31.93;20.22;100957.41;3531215;40;20046;-56
2021/06/01 12:42:05;;;;;;;7.28;3.03;;;;;;;35.49;17.54;100969.16;3529815;40;20356;-58
2021/06/01 12:44:39;;;;;;;4.00;2.97;;;;;;;36.37;17.30;100977.53;3530167;40;20058;-58
2021/06/01 13:14:49;;;;;;;3.97;3.53;;;;;;;37.27;15.68;100938.25;3531450;40;20046;-55
2021/06/01 13:20:34;;;;;;;4.53;2.88;;;;;;;36.19;16.15;100940.69;3529112;40;20041;-57
2021/06/01 13:46:15;;;;;;;6.45;2.70;;;;;;;33.63;19.63;100901.59;3530757;40;20061;-56
2021/06/01 13:51:37;;;;;;;3.78;2.80;;;;;;;34.11;17.00;100897.44;3530636;40;20050;-57
2021/06/01 13:55:08;;;;;;;3.53;2.63;;;;;;;35.23;17.11;100904.50;3528116;40;20083;-56